Time;durP1;ratioP1;P1;durP2;ratioP2;P2;SDS_P1;SDS_P2;PMS_P1;PMS_P2;Temp;Humidity;BMP_temperature;BMP_pressure;BME280_temperature;BME280_humidity;BME280_pressure;Samples;Min_cycle;Max_cycle;Signal;HPM_P1;HPM_P2
2024/02/16 00:01:20;;;;;;;4.47;4.07;;;13.10;99.90;;;;;;4949716;29;20553;-84
2024/02/16 00:03:47;;;;;;;3.80;3.50;;;13.20;99.90;;;;;;4950316;28;20282;-86
2024/02/16 00:06:13;;;;;;;3.97;3.25;;;;;;;;;;4949466;28;20214;-85
2024/02/16 00:08:38;;;;;;;4.97;3.60;;;11.10;99.90;;;;;;4952937;28;20203;-85
2024/02/16 00:11:05;;;;;;;6.70;3.80;;;12.80;99.90;;;;;;4946711;28;20195;-87
2024/02/16 00:13:31;;;;;;;4.43;3.72;;;11.10;99.90;;;;;;4952116;28;20633;-86
2024/02/16 00:15:57;;;;;;;4.20;3.70;;;;;;;;;;4945892;28;20204;-86
2024/02/16 00:18:23;;;;;;;4.40;3.58;;;11.20;99.90;;;;;;4945535;29;20472;-86
2024/02/16 00:20:49;;;;;;;4.85;3.83;;;12.30;99.90;;;;;;4934919;28;20278;-84
2024/02/16 00:23:15;;;;;;;3.73;3.30;;;;;;;;;;4953144;28;20196;-85
2024/02/16 00:25:41;;;;;;;3.60;3.30;;;11.30;99.90;;;;;;4948756;28;20205;-86
2024/02/16 00:28:07;;;;;;;3.97;3.57;;;11.30;99.90;;;;;;4949384;28;20238;-84
2024/02/16 00:30:33;;;;;;;4.38;3.45;;;12.40;99.90;;;;;;4947166;28;20184;-84
2024/02/16 00:33:00;;;;;;;3.40;3.10;;;;;;;;;;4949332;28;20292;-84
2024/02/16 00:35:26;;;;;;;3.63;3.30;;;11.40;99.90;;;;;;4948573;28;20705;-86
2024/02/16 00:37:52;;;;;;;3.93;3.27;;;;;;;;;;4929745;29;20224;-86
2024/02/16 00:40:18;;;;;;;3.20;2.90;;;11.50;99.90;;;;;;4936114;28;20268;-85
2024/02/16 00:42:43;;;;;;;3.60;3.20;;;12.70;99.90;;;;;;4952360;28;20243;-85
2024/02/16 00:45:09;;;;;;;5.63;3.33;;;;;;;;;;4951520;28;20278;-85
2024/02/16 00:47:35;;;;;;;3.45;2.95;;;11.60;99.90;;;;;;4947789;28;20196;-85
2024/02/16 00:50:01;;;;;;;3.70;3.27;;;10.80;99.90;;;;;;4948662;28;20189;-85
2024/02/16 00:52:27;;;;;;;4.80;2.87;;;12.50;99.90;;;;;;4948035;29;20455;-85
2024/02/16 00:54:52;;;;;;;3.70;3.23;;;12.30;99.90;;;;;;4947991;28;20204;-84
2024/02/16 00:57:18;;;;;;;3.40;3.10;;;11.80;99.90;;;;;;4951689;28;20196;-84
2024/02/16 00:59:44;;;;;;;4.37;3.50;;;;;;;;;;4932099;29;20296;-85
2024/02/16 01:02:11;;;;;;;3.40;3.10;;;11.60;99.90;;;;;;4948236;28;20613;-84
2024/02/16 01:04:37;;;;;;;5.70;3.65;;;12.00;99.90;;;;;;4953545;28;20440;-85
2024/02/16 01:07:03;;;;;;;4.30;3.20;;;12.40;99.90;;;;;;4950563;28;20200;-85
2024/02/16 01:09:29;;;;;;;4.30;3.60;;;;;;;;;;4948850;29;20451;-85
2024/02/16 01:11:56;;;;;;;4.28;3.53;;;11.80;99.90;;;;;;4949457;28;20444;-84
2024/02/16 01:14:21;;;;;;;4.18;3.75;;;13.70;99.90;;;;;;4950578;28;20200;-84
2024/02/16 01:16:47;;;;;;;3.50;3.20;;;;;;;;;;4954174;28;20208;-86
2024/02/16 01:19:13;;;;;;;5.32;3.13;;;11.80;99.90;;;;;;4952154;28;20199;-84
2024/02/16 01:21:39;;;;;;;4.33;3.07;;;13.50;99.90;;;;;;4951546;28;20258;-84
2024/02/16 01:24:08;;;;;;;4.10;3.60;;;11.20;99.90;;;;;;4950710;28;20198;-85
2024/02/16 01:26:34;;;;;;;5.78;3.17;;;11.50;99.90;;;;;;4951715;28;20463;-84
2024/02/16 01:29:01;;;;;;;5.23;3.67;;;13.40;99.90;;;;;;4947839;28;20328;-84
2024/02/16 01:31:27;;;;;;;4.15;3.35;;;13.80;99.90;;;;;;4949624;29;20593;-84
2024/02/16 01:33:53;;;;;;;5.30;4.40;;;11.00;99.90;;;;;;4956191;29;20189;-84
2024/02/16 01:36:19;;;;;;;3.80;3.40;;;11.70;99.90;;;;;;4933297;28;20295;-84
2024/02/16 01:38:44;;;;;;;4.10;3.60;;;11.80;99.90;;;;;;4948016;29;20815;-83
2024/02/16 01:41:10;;;;;;;5.93;3.70;;;12.30;99.90;;;;;;4947391;28;20217;-84
2024/02/16 01:43:36;;;;;;;4.20;3.22;;;13.40;99.90;;;;;;4931983;28;20231;-85
2024/02/16 01:46:02;;;;;;;3.77;3.30;;;12.00;99.90;;;;;;4946635;28;20259;-85
2024/02/16 01:48:29;;;;;;;3.27;2.97;;;11.80;99.90;;;;;;4947408;29;20247;-85
2024/02/16 01:50:55;;;;;;;3.40;3.10;;;12.90;99.90;;;;;;4948876;28;20196;-84
2024/02/16 01:53:22;;;;;;;3.55;3.25;;;12.60;99.90;;;;;;4947525;28;20185;-85
2024/02/16 01:55:49;;;;;;;4.05;3.50;;;11.70;99.90;;;;;;4931142;28;20213;-85
2024/02/16 01:58:15;;;;;;;3.50;3.20;;;12.00;99.90;;;;;;4947068;28;20249;-84
2024/02/16 02:00:41;;;;;;;4.80;3.20;;;13.50;99.90;;;;;;4947506;28;20565;-84
2024/02/16 02:03:07;;;;;;;3.83;3.30;;;;;;;;;;4953094;28;20224;-85
2024/02/16 02:05:33;;;;;;;3.63;3.17;;;11.70;99.90;;;;;;4952004;29;20495;-84
2024/02/16 02:07:58;;;;;;;3.30;3.00;;;13.70;99.90;;;;;;4949040;29;20587;-84
2024/02/16 02:10:24;;;;;;;4.40;3.60;;;;;;;;;;4947695;29;20770;-84
2024/02/16 02:12:50;;;;;;;3.80;3.42;;;11.80;99.90;;;;;;4949439;29;20192;-84
2024/02/16 02:15:15;;;;;;;3.97;3.07;;;11.90;99.90;;;;;;4953074;28;20768;-84
2024/02/16 02:17:41;;;;;;;4.00;3.60;;;12.80;99.90;;;;;;4948492;28;20198;-85
2024/02/16 02:20:10;;;;;;;6.03;2.90;;;13.00;99.90;;;;;;4945253;28;20184;-84
2024/02/16 02:22:39;;;;;;;3.97;3.35;;;12.00;99.90;;;;;;4947213;28;20212;-85
2024/02/16 02:25:05;;;;;;;3.50;3.20;;;11.90;99.90;;;;;;4944319;28;20216;-84
2024/02/16 02:27:30;;;;;;;3.20;2.92;;;12.00;99.90;;;;;;4963148;28;20191;-85
2024/02/16 02:29:56;;;;;;;3.00;2.70;;;13.30;99.90;;;;;;4947190;29;20200;-85
2024/02/16 02:32:21;;;;;;;5.70;3.30;;;12.90;99.90;;;;;;4946734;28;20625;-86
2024/02/16 02:34:47;;;;;;;3.80;3.23;;;11.60;99.90;;;;;;4952871;28;20565;-85
2024/02/16 02:37:13;;;;;;;4.40;3.33;;;13.10;99.90;;;;;;4946703;28;20192;-84
2024/02/16 02:39:39;;;;;;;6.90;3.23;;;13.30;99.90;;;;;;4961843;28;20519;-84
2024/02/16 02:42:06;;;;;;;2.85;2.65;;;12.90;99.90;;;;;;4950615;28;20475;-85
2024/02/16 02:44:32;;;;;;;4.03;2.85;;;12.00;99.90;;;;;;4961299;28;20189;-86
2024/02/16 02:46:58;;;;;;;2.92;2.67;;;13.10;99.90;;;;;;4946107;29;20256;-85
2024/02/16 02:49:23;;;;;;;5.70;3.00;;;13.20;99.90;;;;;;4952519;28;20193;-85
2024/02/16 02:51:49;;;;;;;4.57;2.90;;;12.60;99.90;;;;;;4949354;29;20212;-85
2024/02/16 02:54:15;;;;;;;3.90;3.50;;;;;;;;;;4951467;28;20230;-85
2024/02/16 02:56:41;;;;;;;7.68;3.10;;;11.90;99.90;;;;;;4944349;28;20216;-85
2024/02/16 02:59:07;;;;;;;3.40;3.10;;;;;;;;;;4945892;28;20188;-85
2024/02/16 03:01:34;;;;;;;3.38;3.08;;;11.50;99.90;;;;;;4948164;28;20213;-85
2024/02/16 03:04:01;;;;;;;2.90;2.70;;;12.80;99.90;;;;;;4951702;28;20184;-84
2024/02/16 03:06:26;;;;;;;3.63;3.23;;;12.80;99.90;;;;;;4949081;28;20205;-84
2024/02/16 03:08:52;;;;;;;4.03;2.93;;;12.50;99.90;;;;;;4947650;29;20181;-85
2024/02/16 03:11:19;;;;;;;3.47;3.07;;;14.00;99.90;;;;;;4946780;28;20191;-84
2024/02/16 03:13:45;;;;;;;2.90;2.60;;;11.70;99.90;;;;;;4947894;29;20212;-85
2024/02/16 03:16:11;;;;;;;3.37;2.50;;;;;;;;;;4947545;28;20268;-85
2024/02/16 03:18:36;;;;;;;2.93;2.63;;;11.90;99.90;;;;;;4952072;28;20185;-84
2024/02/16 03:21:02;;;;;;;3.00;2.77;;;11.00;99.90;;;;;;4947212;28;20495;-84
2024/02/16 03:23:28;;;;;;;3.15;2.65;;;11.60;99.90;;;;;;4943544;28;20239;-84
2024/02/16 03:25:54;;;;;;;4.10;2.90;;;;;;;;;;4947282;29;20228;-85
2024/02/16 03:28:23;;;;;;;2.90;2.60;;;11.70;99.90;;;;;;4948905;28;20580;-85
2024/02/16 03:30:49;;;;;;;3.55;2.60;;;13.10;99.90;;;;;;4948244;29;20268;-85
2024/02/16 03:33:14;;;;;;;3.30;2.90;;;12.10;99.90;;;;;;4955540;28;20612;-85
2024/02/16 03:35:40;;;;;;;4.13;2.93;;;11.40;99.90;;;;;;4948932;28;20563;-85
2024/02/16 03:38:06;;;;;;;5.70;3.23;;;11.70;99.90;;;;;;4945399;28;20224;-85
2024/02/16 03:40:32;;;;;;;3.00;2.67;;;14.10;99.90;;;;;;4956710;28;20184;-84
2024/02/16 03:42:58;;;;;;;3.93;2.70;;;14.00;99.90;;;;;;4945504;28;20239;-84
2024/02/16 03:45:26;;;;;;;3.33;2.80;;;12.60;99.90;;;;;;4946044;28;20507;-85
2024/02/16 03:47:52;;;;;;;3.03;2.80;;;13.10;99.90;;;;;;4952912;28;20561;-85
2024/02/16 03:50:19;;;;;;;4.23;3.10;;;13.70;99.90;;;;;;4949361;28;20180;-84
2024/02/16 03:52:45;;;;;;;2.70;2.33;;;13.10;99.90;;;;;;4945795;29;20200;-85
2024/02/16 03:55:10;;;;;;;4.07;3.67;;;12.00;99.90;;;;;;4954192;28;20212;-85
2024/02/16 03:57:37;;;;;;;3.23;2.50;;;13.30;99.90;;;;;;4948273;29;20946;-85
2024/02/16 04:00:05;;;;;;;2.65;2.30;;;14.10;99.90;;;;;;4950072;28;20189;-85
2024/02/16 04:02:31;;;;;;;2.60;2.40;;;11.80;99.90;;;;;;4950061;28;20204;-85
2024/02/16 04:04:57;;;;;;;3.30;2.77;;;12.70;99.90;;;;;;4946670;28;20205;-85
2024/02/16 04:07:23;;;;;;;2.70;2.40;;;13.10;99.90;;;;;;4952288;28;20460;-85
2024/02/16 04:09:49;;;;;;;3.08;2.80;;;13.50;99.90;;;;;;4948717;29;20184;-83
2024/02/16 04:12:15;;;;;;;2.60;2.40;;;13.40;99.90;;;;;;4950112;28;20199;-84
2024/02/16 04:14:41;;;;;;;2.70;2.50;;;10.50;99.90;;;;;;4950724;28;20280;-83
2024/02/16 04:17:07;;;;;;;3.63;2.50;;;12.70;99.90;;;;;;4948611;28;20189;-85
2024/02/16 04:19:33;;;;;;;4.37;2.93;;;13.50;99.90;;;;;;4949592;28;20284;-86
2024/02/16 04:21:59;;;;;;;2.53;2.33;;;13.30;99.90;;;;;;4949277;28;20209;-84
2024/02/16 04:24:24;;;;;;;4.33;3.00;;;14.10;99.90;;;;;;4950048;28;20191;-84
2024/02/16 04:26:50;;;;;;;2.83;2.60;;;11.50;99.90;;;;;;4948124;29;20200;-86
2024/02/16 04:29:16;;;;;;;3.90;3.07;;;11.10;99.90;;;;;;4947680;28;20193;-84
2024/02/16 04:31:42;;;;;;;3.40;3.10;;;11.20;99.90;;;;;;4955002;28;20269;-84
2024/02/16 04:34:08;;;;;;;2.67;2.33;;;12.30;99.90;;;;;;4950821;28;20658;-85
2024/02/16 04:36:34;;;;;;;3.67;3.33;;;13.20;99.90;;;;;;4947113;28;20208;-85
2024/02/16 04:39:00;;;;;;;2.90;2.70;;;;;;;;;;4946252;29;20181;-85
2024/02/16 04:41:26;;;;;;;3.50;3.05;;;12.00;99.90;;;;;;4946217;28;20544;-86
2024/02/16 04:43:53;;;;;;;4.70;3.20;;;;;;;;;;4942066;29;20201;-85
2024/02/16 04:46:19;;;;;;;3.13;2.83;;;11.90;99.90;;;;;;4958122;28;20215;-86
2024/02/16 04:48:45;;;;;;;5.32;3.40;;;13.40;99.90;;;;;;4956443;28;20208;-86
2024/02/16 04:51:11;;;;;;;4.67;3.37;;;13.20;99.90;;;;;;4952924;28;20201;-85
2024/02/16 04:53:37;;;;;;;5.05;3.90;;;11.90;99.90;;;;;;4949188;28;20444;-85
2024/02/16 04:56:03;;;;;;;8.30;4.50;;;13.00;99.90;;;;;;4951796;28;20243;-85
2024/02/16 04:58:28;;;;;;;4.53;4.13;;;12.00;99.90;;;;;;4947016;28;20204;-85
2024/02/16 05:00:54;;;;;;;4.10;3.70;;;14.30;99.90;;;;;;4947766;28;20217;-86
2024/02/16 05:03:21;;;;;;;3.20;2.90;;;13.10;99.90;;;;;;4948722;28;20212;-84
2024/02/16 05:05:46;;;;;;;4.25;3.70;;;12.20;99.90;;;;;;4947822;28;20427;-85
2024/02/16 05:08:12;;;;;;;4.67;3.70;;;13.30;99.90;;;;;;4947009;28;20607;-85
2024/02/16 05:10:38;;;;;;;4.53;3.70;;;;;;;;;;4948231;28;20200;-85
2024/02/16 05:13:04;;;;;;;4.35;3.95;;;12.00;99.90;;;;;;4948949;28;20563;-84
2024/02/16 05:15:31;;;;;;;7.60;4.90;;;11.80;99.90;;;;;;4941798;28;20212;-86
2024/02/16 05:17:57;;;;;;;6.43;4.22;;;11.00;99.90;;;;;;4939661;28;20189;-86
2024/02/16 05:20:23;;;;;;;4.40;4.00;;;10.70;99.90;;;;;;4941107;28;20188;-85
2024/02/16 05:22:49;;;;;;;3.30;3.00;;;12.00;99.90;;;;;;4940516;29;20220;-85
2024/02/16 05:25:18;;;;;;;6.28;5.68;;;13.60;99.90;;;;;;4939660;28;20500;-86
2024/02/16 05:27:44;;;;;;;3.70;3.40;;;12.90;99.90;;;;;;4941704;29;20792;-86
2024/02/16 05:30:12;;;;;;;4.97;3.60;;;11.90;99.90;;;;;;4946506;28;20188;-86
2024/02/16 05:32:38;;;;;;;4.75;3.40;;;12.30;99.90;;;;;;4941905;29;20241;-85
2024/02/16 05:35:11;;;;;;;3.20;2.90;;;13.60;99.90;;;;;;4945871;28;20299;-85
2024/02/16 05:37:39;;;;;;;7.20;3.42;;;13.50;99.90;;;;;;4940159;28;20440;-87
2024/02/16 05:40:21;;;;;;;4.32;3.92;;;14.60;99.90;;;;;;4942425;28;20189;-85
2024/02/16 05:42:47;;;;;;;5.63;3.28;;;12.60;99.90;;;;;;4944753;28;20205;-86
2024/02/16 05:45:16;;;;;;;3.55;3.25;;;13.30;99.90;;;;;;4941668;28;20220;-85
2024/02/16 05:47:45;;;;;;;4.70;3.67;;;12.40;99.90;;;;;;4944138;28;20204;-86
2024/02/16 05:50:12;;;;;;;4.10;3.70;;;12.60;99.90;;;;;;4946497;28;20298;-85
2024/02/16 05:52:39;;;;;;;4.95;4.20;;;12.40;99.90;;;;;;4940744;29;20203;-85
2024/02/16 05:55:06;;;;;;;4.55;3.65;;;13.70;99.90;;;;;;4941852;29;20213;-85
2024/02/16 05:57:32;;;;;;;5.55;3.90;;;12.30;99.90;;;;;;4940272;28;20188;-85
2024/02/16 05:59:58;;;;;;;4.60;4.10;;;;;;;;;;4921431;29;20200;-85
2024/02/16 06:02:25;;;;;;;5.77;3.80;;;12.50;99.90;;;;;;4937931;28;20244;-85
2024/02/16 06:04:51;;;;;;;4.30;3.75;;;12.30;99.90;;;;;;4942578;28;20510;-85
2024/02/16 06:07:17;;;;;;;4.20;3.80;;;12.10;99.90;;;;;;4943670;28;20180;-86
2024/02/16 06:09:43;;;;;;;4.47;4.07;;;11.70;99.90;;;;;;4941683;28;20590;-86
2024/02/16 06:12:11;;;;;;;4.97;3.67;;;12.40;99.90;;;;;;4945334;28;20198;-84
2024/02/16 06:14:37;;;;;;;6.25;3.78;;;15.00;99.90;;;;;;4941382;28;20193;-85
2024/02/16 06:17:03;;;;;;;3.70;3.30;;;;;;;;;;4941167;28;20189;-85
2024/02/16 06:19:28;;;;;;;4.00;3.45;;;12.30;99.90;;;;;;4933303;28;20216;-86
2024/02/16 06:21:55;;;;;;;4.30;3.17;;;12.30;99.90;;;;;;4941074;29;20224;-86
2024/02/16 06:24:23;;;;;;;3.30;2.67;;;12.20;99.90;;;;;;4940562;28;20180;-85
2024/02/16 06:26:51;;;;;;;5.22;3.47;;;12.80;99.90;;;;;;4952150;28;20712;-87
2024/02/16 06:29:17;;;;;;;4.68;4.07;;;12.20;99.90;;;;;;4939738;28;20219;-87
2024/02/16 06:31:43;;;;;;;7.20;4.73;;;12.20;99.90;;;;;;4935661;28;20224;-88
2024/02/16 06:34:08;;;;;;;6.03;5.10;;;12.10;99.90;;;;;;4939239;28;20444;-87
2024/02/16 06:36:34;;;;;;;5.30;4.80;;;12.40;99.90;;;;;;4954936;28;20212;-86
2024/02/16 06:38:59;;;;;;;5.67;4.60;;;12.30;99.90;;;;;;4942420;28;20192;-87
2024/02/16 06:41:25;;;;;;;6.90;4.77;;;12.50;99.90;;;;;;4943573;28;20227;-87
2024/02/16 06:43:51;;;;;;;6.07;5.47;;;12.40;99.90;;;;;;4939563;29;20192;-85
2024/02/16 06:46:17;;;;;;;6.47;5.87;;;12.20;99.90;;;;;;4951310;28;20206;-87
2024/02/16 06:48:42;;;;;;;5.70;5.20;;;12.20;99.90;;;;;;4936599;29;20464;-85
2024/02/16 06:51:08;;;;;;;6.87;5.20;;;12.20;99.90;;;;;;4939368;28;20560;-86
2024/02/16 06:53:33;;;;;;;6.03;5.43;;;12.70;99.90;;;;;;4937966;28;20196;-86
2024/02/16 06:55:59;;;;;;;5.13;3.47;;;12.30;99.90;;;;;;4930252;28;20377;-84
2024/02/16 06:58:24;;;;;;;6.93;3.40;;;12.30;99.90;;;;;;4931496;28;20721;-88
2024/02/16 07:00:50;;;;;;;4.33;3.57;;;11.90;99.90;;;;;;4934497;29;20244;-88
2024/02/16 07:03:15;;;;;;;5.27;3.93;;;12.50;99.90;;;;;;4941788;28;20676;-86
2024/02/16 07:05:41;;;;;;;7.33;4.57;;;12.00;99.90;;;;;;4941522;28;20208;-88
2024/02/16 07:08:07;;;;;;;5.00;4.50;;;12.30;99.90;;;;;;4935311;29;20327;-88
2024/02/16 07:10:33;;;;;;;4.95;3.83;;;12.00;99.90;;;;;;4938493;29;20284;-88
2024/02/16 07:13:00;;;;;;;8.80;4.15;;;11.90;99.90;;;;;;4936909;29;20878;-87
2024/02/16 07:15:26;;;;;;;6.93;5.47;;;11.60;99.90;;;;;;4936933;28;20517;-87
2024/02/16 07:17:55;;;;;;;4.57;3.80;;;11.80;99.90;;;;;;4939858;29;20736;-86
2024/02/16 07:20:20;;;;;;;5.53;4.05;;;11.60;99.90;;;;;;4936856;28;20186;-88
2024/02/16 07:22:46;;;;;;;4.70;4.20;;;11.70;99.90;;;;;;4957284;28;20692;-87
2024/02/16 07:25:12;;;;;;;4.20;3.80;;;11.60;99.90;;;;;;4942784;28;20232;-86
2024/02/16 07:27:38;;;;;;;7.40;3.80;;;11.80;99.90;;;;;;4940277;28;20250;-86
2024/02/16 07:30:04;;;;;;;4.37;3.90;;;11.80;99.90;;;;;;4934867;29;20440;-86
2024/02/16 07:32:30;;;;;;;5.15;4.20;;;11.40;99.90;;;;;;4951403;28;21037;-86
2024/02/16 07:34:56;;;;;;;4.80;4.30;;;12.10;99.90;;;;;;4939004;28;20258;-87
2024/02/16 07:37:21;;;;;;;5.17;4.00;;;11.70;99.90;;;;;;4939211;28;20454;-88
2024/02/16 07:39:47;;;;;;;4.60;3.70;;;12.00;99.90;;;;;;4942451;29;20646;-90
2024/02/16 07:42:15;;;;;;;4.93;4.13;;;11.80;99.90;;;;;;4946633;28;20219;-88
2024/02/16 07:44:41;;;;;;;4.75;4.25;;;11.60;99.90;;;;;;4942946;28;20180;-86
2024/02/16 07:47:07;;;;;;;6.50;4.15;;;12.30;99.90;;;;;;4937920;29;20177;-87
2024/02/16 07:49:32;;;;;;;5.03;4.20;;;12.00;99.90;;;;;;4938919;28;20203;-87
2024/02/16 07:51:58;;;;;;;4.83;4.00;;;12.10;99.90;;;;;;4952625;28;20192;-86
2024/02/16 07:54:23;;;;;;;4.33;3.87;;;12.10;99.90;;;;;;4940455;28;20227;-86
2024/02/16 07:56:49;;;;;;;5.00;3.90;;;11.50;99.90;;;;;;4935485;28;20258;-86
2024/02/16 07:59:15;;;;;;;4.22;3.50;;;11.90;99.90;;;;;;4934926;29;20214;-87
2024/02/16 08:01:45;;;;;;;5.43;4.90;;;12.30;99.90;;;;;;4937546;28;20218;-86
2024/02/16 08:04:10;;;;;;;4.93;3.90;;;11.60;99.90;;;;;;4931959;29;20440;-87
2024/02/16 08:06:36;;;;;;;5.93;4.10;;;12.00;99.90;;;;;;4936672;28;20713;-88
2024/02/16 08:09:02;;;;;;;5.50;4.13;;;11.60;99.90;;;;;;4940038;28;20213;-88
2024/02/16 08:11:27;;;;;;;4.83;4.40;;;12.00;99.90;;;;;;4933396;28;20220;-88
2024/02/16 08:13:55;;;;;;;7.57;4.73;;;12.40;99.90;;;;;;4943564;29;20448;-85
2024/02/16 08:16:21;;;;;;;6.38;4.20;;;11.90;99.90;;;;;;4944402;28;20467;-88
2024/02/16 08:18:46;;;;;;;4.90;3.83;;;12.10;99.90;;;;;;4935912;28;20196;-88
2024/02/16 08:21:12;;;;;;;5.63;4.77;;;12.20;99.90;;;;;;4942009;28;20456;-88
2024/02/16 08:23:38;;;;;;;4.40;4.00;;;12.60;99.90;;;;;;4941207;28;20284;-87
2024/02/16 08:26:04;;;;;;;5.53;4.33;;;12.70;99.90;;;;;;4934974;28;20301;-87
2024/02/16 08:28:29;;;;;;;5.67;4.50;;;12.50;99.90;;;;;;4936097;28;20187;-85
2024/02/16 08:30:55;;;;;;;5.30;4.80;;;12.50;99.90;;;;;;4934791;28;20527;-86
2024/02/16 08:33:20;;;;;;;7.53;6.23;;;13.30;99.90;;;;;;4933010;28;20260;-86
2024/02/16 08:35:46;;;;;;;7.33;5.80;;;12.60;99.90;;;;;;4936776;29;20205;-86
2024/02/16 08:38:12;;;;;;;6.40;5.77;;;13.30;99.90;;;;;;4933132;29;20656;-84
2024/02/16 08:40:38;;;;;;;8.50;5.50;;;13.90;99.90;;;;;;4934658;28;20444;-86
2024/02/16 08:43:05;;;;;;;12.30;7.70;;;13.80;99.90;;;;;;4935417;29;20611;-84
2024/02/16 08:45:30;;;;;;;7.55;6.13;;;13.80;99.90;;;;;;4932279;28;20205;-85
2024/02/16 08:47:57;;;;;;;6.53;5.80;;;14.00;99.90;;;;;;4934723;29;20196;-85
2024/02/16 08:50:24;;;;;;;8.65;6.82;;;14.60;99.90;;;;;;4932763;28;20276;-86
2024/02/16 08:52:50;;;;;;;9.55;7.35;;;14.20;99.90;;;;;;4934536;29;20184;-87
2024/02/16 08:55:16;;;;;;;8.40;6.38;;;14.50;99.90;;;;;;4933285;29;20212;-86
2024/02/16 08:57:41;;;;;;;8.43;6.13;;;14.60;99.90;;;;;;4934895;28;20196;-87
2024/02/16 09:00:07;;;;;;;8.30;5.90;;;14.30;99.90;;;;;;4926942;29;20448;-85
2024/02/16 09:02:33;;;;;;;13.23;6.82;;;14.60;99.90;;;;;;4935149;28;20744;-86
2024/02/16 09:04:58;;;;;;;9.70;6.00;;;14.30;99.90;;;;;;4938708;28;20201;-91
2024/02/16 09:07:25;;;;;;;6.67;5.73;;;15.30;99.90;;;;;;4942510;28;20181;-90
2024/02/16 09:09:51;;;;;;;10.23;6.00;;;17.30;98.40;;;;;;4937996;29;20208;-87
2024/02/16 09:12:16;;;;;;;6.17;5.57;;;19.00;94.10;;;;;;4935854;29;20264;-88
2024/02/16 09:14:42;;;;;;;10.57;5.57;;;21.90;91.30;;;;;;4935595;28;20193;-88
2024/02/16 09:17:07;;;;;;;7.23;5.60;;;22.40;83.80;;;;;;4935562;29;20196;-88
2024/02/16 09:19:33;;;;;;;9.67;6.40;;;21.40;83.40;;;;;;4937052;28;20709;-88
2024/02/16 09:22:02;;;;;;;6.17;5.60;;;22.30;81.30;;;;;;4938196;29;20301;-89
2024/02/16 09:24:29;;;;;;;8.50;5.20;;;23.20;78.20;;;;;;4934810;28;20197;-87
2024/02/16 09:26:55;;;;;;;5.53;4.90;;;24.80;77.80;;;;;;4935589;29;20906;-88
2024/02/16 09:29:21;;;;;;;6.53;5.17;;;24.30;76.60;;;;;;4934660;28;20499;-90
2024/02/16 09:31:50;;;;;;;5.20;4.70;;;22.30;77.10;;;;;;4936903;28;20446;-90
2024/02/16 09:34:15;;;;;;;7.03;5.47;;;22.10;75.60;;;;;;4935646;29;20212;-90
2024/02/16 09:36:42;;;;;;;5.33;4.50;;;21.80;77.80;;;;;;4935374;28;20492;-88
2024/02/16 09:39:07;;;;;;;5.55;5.07;;;21.30;78.60;;;;;;4933274;29;20188;-87
2024/02/16 09:41:36;;;;;;;4.73;4.33;;;21.30;79.50;;;;;;4933446;28;20253;-87
2024/02/16 09:44:03;;;;;;;5.05;4.65;;;21.00;79.10;;;;;;4934096;29;20209;-87
2024/02/16 09:46:31;;;;;;;7.78;4.75;;;21.10;80.10;;;;;;4934853;29;20201;-87
2024/02/16 09:49:02;;;;;;;6.40;5.10;;;21.70;80.10;;;;;;4933860;29;20203;-88
2024/02/16 09:51:29;;;;;;;4.80;4.23;;;21.60;79.00;;;;;;4933224;28;20527;-87
2024/02/16 09:53:57;;;;;;;5.50;4.80;;;22.60;77.40;;;;;;4938592;29;20447;-88
2024/02/16 09:56:24;;;;;;;8.30;5.30;;;23.30;73.70;;;;;;4937365;28;20555;-87
2024/02/16 09:58:54;;;;;;;6.63;5.00;;;22.40;73.30;;;;;;4930642;28;20452;-85
2024/02/16 10:01:21;;;;;;;5.57;4.23;;;22.10;73.80;;;;;;4933442;29;20833;-89
2024/02/16 10:03:47;;;;;;;5.97;4.80;;;22.80;76.80;;;;;;4931118;28;20977;-89
2024/02/16 10:06:15;;;;;;;5.73;4.70;;;22.30;77.70;;;;;;4932537;28;20491;-87
2024/02/16 10:08:51;;;;;;;8.90;5.27;;;22.30;77.70;;;;;;4932356;29;20440;-87
2024/02/16 10:11:21;;;;;;;9.30;5.50;;;21.40;76.70;;;;;;4936277;29;20479;-87
2024/02/16 10:14:00;;;;;;;5.30;4.50;;;21.60;76.50;;;;;;4946861;28;20539;-87
2024/02/16 10:16:29;;;;;;;6.05;5.35;;;21.50;76.70;;;;;;4931558;29;20464;-87
2024/02/16 10:19:06;;;;;;;4.25;3.78;;;21.60;76.90;;;;;;4935316;29;20186;-88
2024/02/16 10:21:32;;;;;;;7.32;4.95;;;21.30;78.30;;;;;;4938750;28;20271;-87
2024/02/16 10:24:08;;;;;;;5.53;4.60;;;21.10;77.50;;;;;;4927686;29;20241;-87
2024/02/16 10:26:37;;;;;;;8.68;5.00;;;20.60;78.90;;;;;;4945622;28;21004;-88
2024/02/16 10:29:04;;;;;;;6.35;5.75;;;20.10;79.90;;;;;;4949689;28;20782;-87
2024/02/16 10:31:31;;;;;;;5.95;4.70;;;20.00;81.80;;;;;;4934372;28;20201;-89
2024/02/16 10:33:59;;;;;;;5.18;4.68;;;19.80;81.40;;;;;;4934371;28;20595;-89
2024/02/16 10:36:28;;;;;;;4.43;3.55;;;22.40;83.60;;;;;;4937201;28;20209;-89
2024/02/16 10:38:54;;;;;;;2.75;2.25;;;20.00;80.60;;;;;;4939861;28;20490;-90
2024/02/16 10:41:21;;;;;;;2.80;2.10;;;19.60;79.50;;;;;;4932993;28;20679;-88
2024/02/16 10:43:48;;;;;;;3.47;1.95;;;19.70;80.40;;;;;;4950533;28;20196;-89
2024/02/16 10:46:17;;;;;;;2.15;1.92;;;19.50;79.60;;;;;;4944565;28;20210;-88
2024/02/16 10:48:42;;;;;;;4.22;2.20;;;19.30;80.10;;;;;;4936972;28;20692;-89
2024/02/16 10:51:09;;;;;;;3.20;2.43;;;19.40;81.00;;;;;;4940306;28;20216;-90
2024/02/16 10:53:36;;;;;;;2.28;2.08;;;19.60;82.10;;;;;;4950751;28;20209;-89
2024/02/16 10:56:02;;;;;;;4.65;2.15;;;19.50;81.20;;;;;;4946370;29;20500;-89
2024/02/16 10:58:29;;;;;;;1.83;1.73;;;19.10;81.20;;;;;;4931859;28;20185;-89
2024/02/16 11:00:56;;;;;;;5.10;4.60;;;19.60;81.50;;;;;;4930883;28;20216;-88
2024/02/16 11:03:24;;;;;;;3.95;2.47;;;19.30;81.50;;;;;;4935303;29;20192;-89
2024/02/16 11:05:50;;;;;;;4.15;2.38;;;19.20;82.00;;;;;;4950322;28;20314;-88
2024/02/16 11:08:17;;;;;;;2.70;1.93;;;19.30;81.50;;;;;;4935158;28;20283;-88
2024/02/16 11:11:00;;;;;;;2.92;2.65;;;19.20;81.00;;;;;;4936872;28;20932;-87
2024/02/16 11:13:27;;;;;;;2.47;1.90;;;20.20;83.50;;;;;;4935842;28;20190;-87
2024/02/16 11:16:06;;;;;;;6.43;2.30;;;21.40;86.30;;;;;;4935872;28;20303;-87
2024/02/16 11:18:32;;;;;;;3.78;2.40;;;19.10;83.50;;;;;;4938883;28;20507;-88
2024/02/16 11:21:02;;;;;;;2.00;1.83;;;19.30;83.70;;;;;;4921510;29;20276;-88
2024/02/16 11:23:31;;;;;;;5.60;2.20;;;19.00;83.00;;;;;;4933771;28;20184;-87
2024/02/16 11:26:08;;;;;;;3.97;2.25;;;19.70;83.70;;;;;;4935115;28;20209;-88
2024/02/16 11:28:35;;;;;;;8.07;5.25;;;19.30;82.80;;;;;;4933141;28;20755;-88
2024/02/16 11:31:02;;;;;;;4.97;3.58;;;19.70;83.70;;;;;;4933936;28;20642;-87
2024/02/16 11:33:28;;;;;;;2.65;2.45;;;20.00;84.40;;;;;;4932142;29;20192;-87
2024/02/16 11:35:58;;;;;;;4.30;3.70;;;19.40;82.80;;;;;;4937715;28;20399;-88
2024/02/16 11:38:25;;;;;;;4.85;3.42;;;19.80;84.20;;;;;;4933980;29;20495;-87
2024/02/16 11:41:11;;;;;;;2.85;2.10;;;19.70;83.40;;;;;;4936706;28;20181;-87
2024/02/16 11:43:36;;;;;;;2.70;2.50;;;19.60;82.80;;;;;;4931910;28;20197;-87
2024/02/16 11:46:17;;;;;;;3.10;2.90;;;19.70;83.20;;;;;;4931113;28;20212;-87
2024/02/16 11:48:43;;;;;;;4.70;2.20;;;19.70;83.10;;;;;;4936839;28;20188;-87
2024/02/16 11:51:08;;;;;;;4.70;2.93;;;20.10;82.60;;;;;;4932334;28;20666;-87
2024/02/16 11:53:34;;;;;;;3.30;2.80;;;20.10;82.50;;;;;;4931720;28;20216;-88
2024/02/16 11:56:00;;;;;;;3.20;2.90;;;20.50;81.30;;;;;;4934500;29;20221;-88
2024/02/16 11:58:26;;;;;;;2.80;2.50;;;21.20;81.20;;;;;;4928834;29;20295;-88
2024/02/16 12:00:51;;;;;;;3.43;2.20;;;21.00;78.80;;;;;;4947746;28;20189;-87
2024/02/16 12:03:24;;;;;;;2.53;2.17;;;21.00;78.20;;;;;;4931084;29;20993;-87
2024/02/16 12:05:59;;;;;;;3.37;2.70;;;21.40;78.00;;;;;;4932240;28;20213;-86
2024/02/16 12:08:36;;;;;;;2.60;2.27;;;21.90;77.10;;;;;;4934371;29;20448;-88
2024/02/16 12:11:03;;;;;;;2.90;2.60;;;22.60;77.30;;;;;;4947895;28;20630;-87
2024/02/16 12:13:28;;;;;;;3.60;2.50;;;22.10;75.90;;;;;;4932212;29;20448;-86
2024/02/16 12:15:57;;;;;;;2.10;1.90;;;22.00;76.00;;;;;;4936712;28;20469;-85
2024/02/16 12:18:24;;;;;;;3.23;2.80;;;21.40;76.40;;;;;;4941003;28;20672;-89
2024/02/16 12:24:12;;;;;;;3.30;3.00;;;21.70;76.90;;;;;;4950884;28;20790;-87
2024/02/16 12:26:37;;;;;;;3.27;2.47;;;21.90;76.60;;;;;;4932074;28;20474;-86
2024/02/16 12:29:03;;;;;;;3.20;2.27;;;21.70;77.80;;;;;;4935518;28;20185;-85
2024/02/16 12:31:30;;;;;;;2.90;2.40;;;22.20;77.90;;;;;;4936853;29;20192;-86
2024/02/16 12:33:55;;;;;;;3.13;2.83;;;22.10;78.00;;;;;;4936339;28;20315;-85
2024/02/16 12:36:22;;;;;;;5.43;3.00;;;22.10;77.70;;;;;;4935156;28;20547;-86
2024/02/16 12:38:49;;;;;;;3.83;2.30;;;22.10;78.00;;;;;;4958223;28;20181;-86
2024/02/16 12:41:14;;;;;;;5.03;2.77;;;21.90;78.00;;;;;;4941691;28;20464;-86
2024/02/16 12:43:40;;;;;;;4.33;3.47;;;21.60;78.10;;;;;;4943131;28;20454;-88
2024/02/16 12:46:05;;;;;;;7.20;2.60;;;21.80;79.20;;;;;;4937290;29;20229;-85
2024/02/16 12:48:31;;;;;;;3.47;2.20;;;22.10;79.40;;;;;;4937748;29;20667;-84
2024/02/16 12:50:57;;;;;;;5.50;2.23;;;21.80;78.70;;;;;;4947402;28;20203;-89
2024/02/16 12:53:24;;;;;;;13.95;4.00;;;21.40;79.50;;;;;;4941136;29;20211;-87